createdAt,value
2023-05-05T11:15:25.479Z,20.90
2023-05-05T11:17:55.131Z,20.80
2023-05-05T11:20:52.331Z,20.60
2023-05-05T11:23:23.355Z,20.50
2023-05-05T11:25:51.642Z,20.50
2023-05-05T11:28:20.974Z,20.50
2023-05-05T11:31:09.517Z,20.30
2023-05-05T11:33:39.477Z,20.10
2023-05-05T11:36:08.020Z,20.00
2023-05-05T11:38:42.429Z,19.70
2023-05-05T11:41:13.444Z,19.70
2023-05-05T11:43:41.799Z,19.70
2023-05-05T11:46:13.068Z,19.60
2023-05-05T11:48:48.834Z,19.50
2023-05-05T11:51:17.324Z,19.40
2023-05-05T11:53:46.457Z,19.40
2023-05-05T11:56:18.968Z,19.80
2023-05-05T11:58:47.162Z,19.80
2023-05-05T12:01:15.470Z,19.60
2023-05-05T12:03:45.602Z,20.00
2023-05-05T12:06:15.174Z,20.00
2023-05-05T12:08:43.140Z,19.80
2023-05-05T12:11:11.830Z,19.90
2023-05-05T12:13:39.715Z,19.80
2023-05-05T12:16:11.067Z,20.00
2023-05-05T12:18:39.318Z,20.40
2023-05-05T12:21:15.953Z,20.20
2023-05-05T12:23:43.915Z,20.10
2023-05-05T12:26:25.027Z,20.10
2023-05-05T12:28:52.972Z,20.40
2023-05-05T12:31:21.084Z,20.50
2023-05-05T12:33:49.625Z,20.60
2023-05-05T12:36:18.936Z,20.80
2023-05-05T12:38:46.847Z,20.60
2023-05-05T12:41:18.895Z,20.60
2023-05-05T12:43:47.540Z,20.80
2023-05-05T12:46:15.869Z,20.90
2023-05-05T12:48:47.228Z,21.00
2023-05-05T12:51:17.436Z,21.60
2023-05-05T12:53:46.927Z,22.10
2023-05-05T12:56:30.447Z,22.40
2023-05-05T12:58:58.545Z,22.40
2023-05-05T13:01:26.490Z,21.50
2023-05-05T13:04:07.429Z,21.60
2023-05-05T13:06:36.064Z,21.70
2023-05-05T13:09:05.435Z,21.80
2023-05-05T13:11:36.047Z,22.50
2023-05-05T13:14:03.989Z,22.90
2023-05-05T13:16:31.977Z,22.30
2023-05-05T13:18:59.851Z,22.60
2023-05-05T13:21:28.082Z,23.10
2023-05-05T13:24:01.535Z,23.40
2023-05-05T13:26:41.538Z,24.30
2023-05-05T13:29:09.421Z,24.00
2023-05-05T13:31:37.296Z,23.40
2023-05-05T13:34:05.361Z,23.70
2023-05-05T13:36:33.276Z,24.00
2023-05-05T13:39:01.300Z,23.80
2023-05-05T13:41:29.189Z,23.80
2023-05-05T13:43:58.544Z,23.80
2023-05-05T13:46:26.509Z,23.70
2023-05-05T13:48:56.802Z,23.50
2023-05-05T13:51:24.903Z,22.90
2023-05-05T13:53:52.795Z,23.50
2023-05-05T13:56:20.784Z,23.60
2023-05-05T13:58:48.661Z,24.10
2023-05-05T14:01:17.982Z,24.10
2023-05-05T14:03:45.974Z,23.70
2023-05-05T14:06:13.898Z,22.90
2023-05-05T14:08:41.812Z,23.00
2023-05-05T14:11:09.715Z,22.80
2023-05-05T14:13:37.648Z,22.90
2023-05-05T14:16:06.087Z,22.50
2023-05-05T14:18:35.755Z,22.40
2023-05-05T14:21:03.690Z,23.60
2023-05-05T14:23:31.955Z,24.00
2023-05-05T14:25:59.912Z,23.30
2023-05-05T14:28:27.828Z,23.20
2023-05-05T14:30:56.137Z,23.40
2023-05-05T14:33:24.089Z,23.50
2023-05-05T14:35:53.377Z,23.60
2023-05-05T14:38:21.325Z,23.00
2023-05-05T14:40:49.248Z,23.80
2023-05-05T14:43:17.226Z,24.10
2023-05-05T14:45:45.350Z,23.60
2023-05-05T14:48:13.271Z,23.90
2023-05-05T14:50:42.550Z,23.60
2023-05-05T14:53:11.795Z,23.80
2023-05-05T14:55:39.849Z,23.90
2023-05-05T14:58:07.890Z,23.30
2023-05-05T15:00:35.831Z,23.40
2023-05-05T15:03:03.797Z,24.00
2023-05-05T15:05:31.744Z,23.60
2023-05-05T15:07:59.712Z,23.20
2023-05-05T15:10:29.002Z,22.80
2023-05-05T15:12:56.944Z,23.00
2023-05-05T15:15:24.898Z,23.30
2023-05-05T15:17:52.868Z,23.10
2023-05-05T15:20:20.810Z,22.60
2023-05-05T15:22:49.621Z,22.40
2023-05-05T15:25:19.240Z,22.60
2023-05-05T15:27:48.524Z,22.60
2023-05-05T15:30:16.594Z,22.40
2023-05-05T15:32:44.552Z,22.30
2023-05-05T15:35:12.550Z,22.30
2023-05-05T15:37:40.819Z,22.20
2023-05-05T15:40:09.475Z,22.20
2023-05-05T15:42:37.420Z,22.10
2023-05-05T15:45:08.222Z,22.20
2023-05-05T15:47:36.316Z,21.90
2023-05-05T15:50:04.387Z,21.70
2023-05-05T15:52:32.261Z,21.70
2023-05-05T15:55:00.383Z,21.60
2023-05-05T15:57:28.450Z,21.50
2023-05-05T15:59:56.340Z,21.50
2023-05-05T16:02:25.713Z,21.30
2023-05-05T16:04:54.020Z,21.30
2023-05-05T16:07:21.895Z,21.20
2023-05-05T16:09:50.098Z,21.00
2023-05-05T16:12:18.479Z,20.90
2023-05-05T16:14:46.416Z,20.90
2023-05-05T16:17:14.324Z,20.90
2023-05-05T16:19:43.594Z,21.10
2023-05-05T16:22:11.535Z,21.10
2023-05-05T16:24:39.458Z,21.00
2023-05-05T16:27:07.539Z,21.00
2023-05-05T16:29:35.522Z,20.90
2023-05-05T16:32:03.456Z,20.90
2023-05-05T16:34:31.515Z,20.80
2023-05-05T16:37:00.823Z,20.80
2023-05-05T16:39:28.782Z,20.90
2023-05-05T16:41:56.729Z,20.80
2023-05-05T16:44:24.655Z,20.80
2023-05-05T16:46:52.555Z,20.80
2023-05-05T16:49:20.467Z,20.70
2023-05-05T16:51:48.378Z,20.80
2023-05-05T16:54:17.652Z,20.90
2023-05-05T16:56:45.562Z,20.80
2023-05-05T16:59:15.560Z,20.90
2023-05-05T17:01:43.618Z,20.80
2023-05-05T17:04:11.929Z,20.90
2023-05-05T17:06:39.804Z,20.90
2023-05-05T17:09:07.722Z,20.70
2023-05-05T17:11:37.089Z,20.70
2023-05-05T17:14:05.016Z,20.70
2023-05-05T17:16:33.074Z,20.60
2023-05-05T17:19:01.045Z,20.50
2023-05-05T17:21:29.364Z,20.40
2023-05-05T17:23:57.262Z,20.30
2023-05-05T17:26:25.288Z,20.30
2023-05-05T17:28:54.634Z,20.30
2023-05-05T17:31:22.574Z,20.50
2023-05-05T17:33:50.570Z,20.70
2023-05-05T17:36:18.524Z,20.80
2023-05-05T17:38:46.416Z,20.80
2023-05-05T17:41:14.331Z,20.60
2023-05-05T17:43:42.222Z,20.00
2023-05-05T17:46:11.569Z,19.70
2023-05-05T17:48:39.524Z,19.70
2023-05-05T17:51:07.424Z,19.80
2023-05-05T17:53:35.327Z,20.00
2023-05-05T17:56:03.309Z,19.80
2023-05-05T17:58:31.209Z,19.70
2023-05-05T18:00:59.125Z,19.70
2023-05-05T18:03:28.533Z,19.60
2023-05-05T18:05:56.525Z,19.50
2023-05-05T18:08:24.438Z,19.50
2023-05-05T18:10:54.121Z,19.30
2023-05-05T18:13:22.060Z,19.10
2023-05-05T18:15:50.034Z,19.00
2023-05-05T18:18:18.028Z,19.00
2023-05-05T18:20:47.383Z,19.10
2023-05-05T18:23:15.343Z,19.00
2023-05-05T18:25:43.224Z,19.00
2023-05-05T18:28:11.118Z,19.00
2023-05-05T18:30:39.045Z,19.00
2023-05-05T18:33:06.966Z,18.90
2023-05-05T18:35:34.903Z,18.90
2023-05-05T18:38:05.063Z,18.90
2023-05-05T18:40:33.007Z,18.80
2023-05-05T18:43:01.055Z,18.70
2023-05-05T18:45:29.046Z,18.50
2023-05-05T18:47:57.840Z,18.40
2023-05-05T18:50:25.983Z,18.20
2023-05-05T18:52:53.869Z,18.10
2023-05-05T18:55:23.281Z,18.00
2023-05-05T18:57:51.148Z,17.80
2023-05-05T19:00:20.050Z,17.60
2023-05-05T19:02:48.062Z,17.60
2023-05-05T19:05:16.046Z,17.70
2023-05-05T19:07:44.759Z,17.70
2023-05-05T19:10:12.745Z,17.70
2023-05-05T19:12:42.058Z,17.70
2023-05-05T19:15:10.497Z,17.60
2023-05-05T19:17:38.668Z,17.60
2023-05-05T19:20:07.667Z,17.40
2023-05-05T19:22:35.604Z,17.30
2023-05-05T19:25:03.736Z,17.20
2023-05-05T19:27:33.906Z,17.10
2023-05-05T19:30:03.226Z,17.00
2023-05-05T19:32:31.293Z,17.10
2023-05-05T19:34:59.308Z,17.10
2023-05-05T19:37:27.255Z,17.00
2023-05-05T19:39:55.144Z,16.90
2023-05-05T19:42:23.205Z,16.90
2023-05-05T19:44:51.183Z,16.90
2023-05-05T19:47:20.686Z,16.80
2023-05-05T19:49:48.592Z,16.80
2023-05-05T19:52:16.480Z,16.70
2023-05-05T19:54:44.493Z,16.70
2023-05-05T19:57:12.602Z,16.70
2023-05-05T19:59:41.739Z,16.70
2023-05-05T20:02:11.494Z,16.70
2023-05-05T20:04:40.807Z,16.60
2023-05-05T20:07:08.768Z,16.50
2023-05-05T20:09:37.721Z,16.60
2023-05-05T20:12:05.964Z,16.50
2023-05-05T20:14:33.906Z,16.40
2023-05-05T20:17:01.771Z,16.30
2023-05-05T20:19:29.696Z,16.30
2023-05-05T20:21:58.944Z,16.30
2023-05-05T20:24:28.578Z,16.30
2023-05-05T20:26:56.607Z,16.30
2023-05-05T20:29:24.497Z,16.30
2023-05-05T20:31:52.452Z,16.20
2023-05-05T20:34:20.401Z,16.10
2023-05-05T20:36:48.467Z,16.10
2023-05-05T20:39:17.860Z,16.00
2023-05-05T20:41:46.320Z,15.90
2023-05-05T20:44:14.227Z,16.00
2023-05-05T20:46:42.173Z,15.90
2023-05-05T20:49:10.110Z,15.80
2023-05-05T20:51:38.017Z,15.70
2023-05-05T20:54:06.273Z,15.70
2023-05-05T20:56:35.607Z,15.70
2023-05-05T20:59:04.096Z,15.50
2023-05-05T21:01:32.156Z,15.60
2023-05-05T21:04:00.386Z,15.60
2023-05-05T21:06:28.284Z,15.60
2023-05-05T21:08:56.185Z,15.50
2023-05-05T21:11:24.099Z,15.40
2023-05-05T21:13:53.353Z,15.30
2023-05-05T21:16:21.281Z,15.30
2023-05-05T21:18:49.177Z,15.40
2023-05-05T21:21:17.261Z,15.40
2023-05-05T21:23:47.235Z,15.30
2023-05-05T21:26:15.147Z,15.30
2023-05-05T21:28:43.039Z,15.20
2023-05-05T21:31:21.912Z,15.20
2023-05-05T21:33:50.238Z,15.30
2023-05-05T21:36:19.278Z,15.30
2023-05-05T21:38:47.198Z,15.30
2023-05-05T21:41:15.161Z,15.30
2023-05-05T21:43:43.055Z,15.20
2023-05-05T21:46:12.431Z,15.00
2023-05-05T21:48:41.423Z,15.00
2023-05-05T21:51:09.333Z,15.00
2023-05-05T21:53:37.813Z,15.00
2023-05-05T21:56:05.921Z,15.00
2023-05-05T21:58:33.818Z,15.00
2023-05-05T22:01:02.248Z,15.00
2023-05-05T22:03:31.602Z,15.00
2023-05-05T22:05:59.596Z,14.80
2023-05-05T22:08:27.521Z,14.70
2023-05-05T22:10:55.402Z,14.70
2023-05-05T22:13:23.332Z,14.80
2023-05-05T22:15:51.309Z,14.80
2023-05-05T22:18:19.239Z,14.70
2023-05-05T22:20:48.524Z,14.70
2023-05-05T22:23:16.547Z,14.70
2023-05-05T22:25:45.464Z,14.70
2023-05-05T22:28:13.362Z,14.70
2023-05-05T22:30:41.322Z,14.70
2023-05-05T22:33:09.218Z,14.70
2023-05-05T22:35:37.777Z,14.60
2023-05-05T22:38:07.158Z,14.60
2023-05-05T22:40:35.099Z,14.50
2023-05-05T22:43:03.045Z,14.50
2023-05-05T22:45:30.948Z,14.40
2023-05-05T22:47:58.896Z,14.40
2023-05-05T22:50:26.919Z,14.40
2023-05-05T22:52:54.807Z,14.30
2023-05-05T22:55:24.885Z,14.30
2023-05-05T22:57:53.247Z,14.30
2023-05-05T23:00:21.139Z,14.20
2023-05-05T23:02:49.197Z,14.20
2023-05-05T23:05:17.176Z,14.00
2023-05-05T23:07:45.042Z,14.00
2023-05-05T23:10:12.978Z,14.00
2023-05-05T23:12:42.207Z,13.90
2023-05-05T23:15:10.794Z,13.90
2023-05-05T23:17:39.044Z,13.70
2023-05-05T23:20:09.660Z,13.60
2023-05-05T23:22:37.643Z,13.60
2023-05-05T23:25:05.741Z,13.60
2023-05-05T23:27:33.703Z,13.60
2023-05-05T23:30:03.248Z,13.60
2023-05-05T23:32:31.105Z,13.60
2023-05-05T23:34:59.095Z,13.50
2023-05-05T23:37:26.974Z,13.30
2023-05-05T23:39:54.874Z,13.10
2023-05-05T23:42:22.757Z,13.00
2023-05-05T23:44:50.694Z,13.00
2023-05-05T23:47:20.025Z,13.00
2023-05-05T23:49:47.900Z,13.10
2023-05-05T23:52:16.143Z,13.10
2023-05-05T23:54:45.844Z,13.10
2023-05-05T23:57:13.771Z,13.00
2023-05-05T23:59:42.045Z,13.00
